Time;durP1;ratioP1;P1;durP2;ratioP2;P2;SDS_P1;SDS_P2;PMS_P1;PMS_P2;Temp;Humidity;BMP_temperature;BMP_pressure;BME280_temperature;BME280_humidity;BME280_pressure;Samples;Min_cycle;Max_cycle;Signal;HPM_P1;HPM_P2
2021/05/31 00:02:21;;;;;;;4.60;4.00;;;18.30;61.60;;;;;;6119182;23;20427;-80
2021/05/31 00:04:48;;;;;;;4.00;3.70;;;18.30;62.00;;;;;;6122999;23;20422;-80
2021/05/31 00:07:18;;;;;;;4.37;3.97;;;18.30;62.10;;;;;;6124616;23;20410;-80
2021/05/31 00:09:47;;;;;;;4.70;4.30;;;18.40;62.30;;;;;;6124161;23;20410;-81
2021/05/31 00:12:16;;;;;;;4.70;4.23;;;18.40;61.80;;;;;;6116406;23;20499;-79
2021/05/31 00:14:44;;;;;;;4.23;3.93;;;18.30;62.10;;;;;;6114461;23;20412;-81
2021/05/31 00:17:12;;;;;;;4.70;4.20;;;18.20;61.90;;;;;;6116658;23;21411;-82
2021/05/31 00:19:40;;;;;;;4.30;3.97;;;18.10;62.50;;;;;;6117164;23;20417;-80
2021/05/31 00:22:07;;;;;;;5.13;3.87;;;18.10;62.80;;;;;;6117381;23;20411;-80
2021/05/31 00:24:34;;;;;;;3.63;3.33;;;18.10;63.10;;;;;;6117427;23;20435;-79
2021/05/31 00:27:01;;;;;;;4.40;3.93;;;18.10;63.30;;;;;;6118487;23;20419;-81
2021/05/31 00:29:28;;;;;;;3.50;3.07;;;18.10;63.90;;;;;;6114161;23;20426;-80
2021/05/31 00:31:56;;;;;;;4.00;3.70;;;18.30;62.70;;;;;;6115480;23;20434;-79
2021/05/31 00:34:23;;;;;;;4.50;3.80;;;18.40;62.20;;;;;;6114022;23;20415;-80
2021/05/31 00:36:50;;;;;;;4.17;3.80;;;18.40;61.50;;;;;;6114595;23;20420;-80
2021/05/31 00:39:20;;;;;;;4.60;3.53;;;18.20;62.00;;;;;;6116305;23;20419;-79
2021/05/31 00:41:51;;;;;;;4.30;3.90;;;18.10;62.90;;;;;;6115201;23;20438;-79
2021/05/31 00:44:18;;;;;;;4.30;3.50;;;18.00;63.50;;;;;;6119228;23;20411;-80
2021/05/31 00:46:49;;;;;;;4.17;3.80;;;18.20;64.00;;;;;;6124601;23;20412;-81
2021/05/31 00:49:20;;;;;;;4.10;3.73;;;18.10;64.30;;;;;;6121317;23;20418;-80
2021/05/31 00:51:48;;;;;;;4.47;3.30;;;18.10;64.00;;;;;;6121782;23;20465;-84
2021/05/31 00:54:15;;;;;;;5.20;4.70;;;18.10;65.10;;;;;;6127105;23;20407;-82
2021/05/31 00:56:42;;;;;;;4.73;4.33;;;18.00;65.30;;;;;;6129752;23;20412;-82
2021/05/31 00:59:09;;;;;;;3.73;3.40;;;18.00;65.70;;;;;;6128433;23;20506;-79
2021/05/31 01:01:36;;;;;;;4.10;3.80;;;18.30;66.30;;;;;;6117942;23;20462;-82
2021/05/31 01:04:03;;;;;;;4.43;4.03;;;18.10;67.60;;;;;;6118371;23;20396;-82
2021/05/31 01:06:36;;;;;;;4.90;4.47;;;18.00;66.40;;;;;;6117672;23;20412;-82
2021/05/31 01:09:14;;;;;;;6.13;4.43;;;17.90;67.60;;;;;;6118794;23;20823;-83
2021/05/31 01:12:01;;;;;;;4.73;3.77;;;17.80;68.90;;;;;;6116565;23;20435;-79
2021/05/31 01:14:51;;;;;;;5.73;4.30;;;17.80;69.90;;;;;;6116097;23;20404;-82
2021/05/31 01:17:30;;;;;;;6.27;4.30;;;17.90;70.80;;;;;;6116507;23;20436;-83
2021/05/31 01:20:08;;;;;;;5.07;4.57;;;17.80;72.00;;;;;;6115673;23;20431;-79
2021/05/31 01:22:37;;;;;;;4.57;4.20;;;17.80;73.90;;;;;;6118775;23;20406;-81
2021/05/31 01:25:13;;;;;;;13.30;4.93;;;17.80;75.10;;;;;;6119345;23;20399;-80
2021/05/31 01:28:04;;;;;;;4.20;3.50;;;17.80;75.60;;;;;;6129204;23;20423;-80
2021/05/31 01:30:32;;;;;;;4.03;3.73;;;17.80;76.40;;;;;;6133262;23;20798;-81
2021/05/31 01:33:01;;;;;;;4.80;4.40;;;17.70;77.00;;;;;;6135012;23;20400;-80
2021/05/31 01:35:33;;;;;;;5.20;4.70;;;17.70;77.40;;;;;;6120265;23;20415;-82
2021/05/31 01:38:02;;;;;;;4.83;4.43;;;17.80;77.90;;;;;;6116864;23;20522;-81
2021/05/31 01:40:30;;;;;;;4.27;3.87;;;17.80;77.20;;;;;;6128541;23;20458;-80
2021/05/31 01:43:00;;;;;;;4.50;4.10;;;17.70;77.70;;;;;;6133546;23;20416;-80
2021/05/31 01:45:28;;;;;;;4.43;4.03;;;17.70;78.00;;;;;;6134931;23;20416;-80
2021/05/31 01:47:55;;;;;;;5.13;4.73;;;17.60;77.70;;;;;;6134580;23;20490;-80
2021/05/31 01:50:22;;;;;;;4.40;4.10;;;17.70;78.10;;;;;;6133159;23;20442;-81
2021/05/31 01:52:51;;;;;;;5.03;4.63;;;17.60;77.70;;;;;;6119421;23;20415;-81
2021/05/31 01:55:17;;;;;;;4.90;4.50;;;17.60;77.50;;;;;;6116104;23;20392;-80
2021/05/31 01:57:46;;;;;;;5.20;4.10;;;17.60;77.40;;;;;;6114763;23;20443;-81
2021/05/31 02:00:16;;;;;;;4.40;4.00;;;17.60;77.40;;;;;;6114536;23;21268;-81
2021/05/31 02:02:48;;;;;;;5.03;4.63;;;17.50;77.80;;;;;;6116020;23;20763;-81
2021/05/31 02:05:15;;;;;;;5.57;5.00;;;17.50;78.70;;;;;;6116389;23;20422;-82
2021/05/31 02:07:43;;;;;;;5.30;4.80;;;17.50;79.70;;;;;;6113805;23;20947;-81
2021/05/31 02:10:12;;;;;;;5.40;4.10;;;17.50;80.50;;;;;;6115950;23;20470;-82
2021/05/31 02:12:47;;;;;;;4.90;4.50;;;17.40;83.40;;;;;;6119725;23;20491;-80
2021/05/31 02:15:17;;;;;;;5.60;5.10;;;17.40;85.10;;;;;;6128387;23;20420;-79
2021/05/31 02:17:54;;;;;;;5.47;4.97;;;17.30;83.70;;;;;;6144761;23;20471;-80
2021/05/31 02:20:24;;;;;;;4.60;4.30;;;17.20;81.10;;;;;;6145618;23;20450;-80
2021/05/31 02:22:56;;;;;;;7.03;4.97;;;17.30;80.90;;;;;;6140289;23;20420;-80
2021/05/31 02:25:23;;;;;;;5.30;4.67;;;17.20;79.90;;;;;;6132324;23;20416;-83
2021/05/31 02:27:50;;;;;;;4.83;4.33;;;17.20;80.40;;;;;;6116745;23;20419;-82
2021/05/31 02:30:19;;;;;;;5.13;4.73;;;17.10;80.80;;;;;;6117223;23;20813;-80
2021/05/31 02:32:50;;;;;;;5.00;4.60;;;17.00;81.00;;;;;;6116159;23;20403;-80
2021/05/31 02:35:17;;;;;;;4.97;4.50;;;17.00;81.20;;;;;;6115332;23;20803;-82
2021/05/31 02:37:45;;;;;;;5.83;5.20;;;17.00;81.30;;;;;;6117415;23;20443;-81
2021/05/31 02:40:13;;;;;;;5.00;4.60;;;17.10;81.50;;;;;;6116504;23;20440;-82
2021/05/31 02:42:42;;;;;;;5.00;4.57;;;17.00;81.00;;;;;;6118705;23;20749;-82
2021/05/31 02:45:09;;;;;;;5.40;5.00;;;17.00;81.80;;;;;;6118328;23;20411;-81
2021/05/31 02:47:36;;;;;;;6.00;5.30;;;16.90;82.20;;;;;;6118994;23;20420;-81
2021/05/31 02:50:04;;;;;;;5.10;4.70;;;16.80;83.10;;;;;;6117914;23;20589;-79
2021/05/31 02:52:31;;;;;;;7.80;4.80;;;16.80;83.80;;;;;;6117181;23;20419;-80
2021/05/31 02:54:57;;;;;;;5.43;5.03;;;16.70;83.90;;;;;;6118571;23;20404;-82
2021/05/31 02:57:24;;;;;;;5.13;4.60;;;16.70;83.90;;;;;;6118205;23;20416;-81
2021/05/31 02:59:52;;;;;;;4.50;4.10;;;16.70;84.10;;;;;;6117189;23;20438;-81
2021/05/31 03:02:19;;;;;;;6.67;5.97;;;16.70;84.10;;;;;;6119657;23;20526;-80
2021/05/31 03:04:46;;;;;;;4.90;4.33;;;16.70;84.50;;;;;;6121882;23;20391;-82
2021/05/31 03:07:12;;;;;;;5.20;4.63;;;16.60;85.50;;;;;;6120487;23;20979;-83
2021/05/31 03:09:39;;;;;;;5.33;4.03;;;16.50;86.50;;;;;;6122508;23;20411;-82
2021/05/31 03:12:08;;;;;;;5.27;4.77;;;16.50;87.00;;;;;;6118358;23;20502;-81
2021/05/31 03:14:35;;;;;;;5.47;4.97;;;16.40;87.50;;;;;;6119241;23;20404;-82
2021/05/31 03:17:03;;;;;;;6.40;4.13;;;16.40;87.90;;;;;;6118960;23;20497;-82
2021/05/31 03:19:30;;;;;;;5.37;4.83;;;16.30;89.00;;;;;;6117463;23;20522;-81
2021/05/31 03:21:57;;;;;;;4.90;4.43;;;16.20;88.70;;;;;;6119503;23;20927;-82
2021/05/31 03:24:24;;;;;;;5.60;5.00;;;16.20;89.00;;;;;;6118589;23;20419;-81
2021/05/31 03:26:51;;;;;;;4.83;4.43;;;16.10;89.00;;;;;;6117878;23;20416;-81
2021/05/31 03:29:18;;;;;;;4.77;4.37;;;16.20;89.10;;;;;;6115652;23;20915;-82
2021/05/31 03:31:45;;;;;;;5.33;4.83;;;16.20;89.10;;;;;;6116508;23;20440;-80
2021/05/31 03:34:12;;;;;;;5.10;4.70;;;16.10;89.10;;;;;;6116734;23;20424;-83
2021/05/31 03:36:39;;;;;;;5.23;4.73;;;16.10;89.30;;;;;;6121808;23;20787;-79
2021/05/31 03:39:07;;;;;;;5.80;5.30;;;16.10;89.40;;;;;;6125521;23;20498;-82
2021/05/31 03:41:35;;;;;;;4.70;4.23;;;16.10;89.30;;;;;;6125231;23;20438;-81
2021/05/31 03:44:02;;;;;;;4.53;4.23;;;16.00;89.50;;;;;;6125046;23;20443;-81
2021/05/31 03:46:29;;;;;;;6.53;4.90;;;16.00;90.00;;;;;;6119517;23;20929;-82
2021/05/31 03:48:56;;;;;;;8.13;4.43;;;16.00;90.00;;;;;;6117042;23;20494;-82
2021/05/31 03:51:23;;;;;;;5.73;4.97;;;15.90;90.20;;;;;;6115754;23;20511;-83
2021/05/31 03:53:50;;;;;;;5.27;4.87;;;15.90;90.40;;;;;;6118056;23;20404;-81
2021/05/31 03:56:17;;;;;;;5.57;5.17;;;15.90;90.50;;;;;;6117157;23;20432;-81
2021/05/31 03:58:45;;;;;;;4.80;4.40;;;15.90;90.50;;;;;;6119379;23;20447;-83
2021/05/31 04:01:14;;;;;;;6.83;5.00;;;15.90;90.60;;;;;;6116719;23;20450;-81
2021/05/31 04:03:42;;;;;;;6.80;5.20;;;16.30;90.00;;;;;;6116930;23;20408;-80
2021/05/31 04:11:41;;;;;;;8.20;5.73;;;16.10;90.10;;;;;;6118911;23;20435;-81
2021/05/31 04:14:10;;;;;;;6.33;5.83;;;16.10;90.20;;;;;;6116632;23;20423;-83
2021/05/31 04:16:39;;;;;;;5.80;5.30;;;16.00;90.50;;;;;;6117458;23;20415;-81
2021/05/31 04:19:08;;;;;;;8.33;5.20;;;16.00;90.70;;;;;;6115232;23;20447;-84
2021/05/31 04:21:36;;;;;;;5.80;5.17;;;15.90;90.90;;;;;;6116707;23;20428;-81
2021/05/31 04:24:03;;;;;;;7.03;5.63;;;15.90;91.10;;;;;;6116398;23;20421;-83
2021/05/31 04:26:32;;;;;;;5.53;5.03;;;15.90;91.20;;;;;;6117413;23;20420;-82
2021/05/31 04:29:00;;;;;;;6.80;5.60;;;16.00;91.20;;;;;;6117917;23;20442;-83
2021/05/31 04:31:27;;;;;;;5.30;4.90;;;16.00;90.90;;;;;;6116233;23;20428;-81
2021/05/31 04:33:54;;;;;;;7.43;5.23;;;16.30;90.20;;;;;;6116260;23;20426;-82
2021/05/31 04:36:21;;;;;;;6.00;5.50;;;16.30;89.60;;;;;;6118697;23;20419;-81
2021/05/31 04:38:48;;;;;;;5.73;5.20;;;16.50;89.10;;;;;;6116801;23;21242;-83
2021/05/31 04:41:18;;;;;;;7.27;5.80;;;16.30;89.20;;;;;;6116043;23;20436;-83
2021/05/31 04:43:45;;;;;;;6.60;5.50;;;16.40;89.10;;;;;;6116932;23;20443;-82
2021/05/31 04:46:12;;;;;;;8.50;5.83;;;16.30;89.40;;;;;;6118111;23;20490;-83
2021/05/31 04:48:39;;;;;;;6.30;5.70;;;16.30;89.70;;;;;;6116216;23;20431;-82
2021/05/31 04:51:07;;;;;;;5.70;5.20;;;16.20;89.70;;;;;;6118132;23;20439;-83
2021/05/31 04:53:34;;;;;;;5.80;5.30;;;16.30;89.90;;;;;;6118237;23;20423;-82
2021/05/31 04:56:04;;;;;;;6.10;5.50;;;16.10;90.40;;;;;;6117837;23;20419;-81
2021/05/31 04:58:31;;;;;;;5.90;4.97;;;16.00;90.40;;;;;;6115979;23;20446;-80
2021/05/31 05:00:58;;;;;;;9.30;5.30;;;16.20;90.60;;;;;;6115213;23;20531;-80
2021/05/31 05:03:24;;;;;;;5.50;5.00;;;16.20;90.40;;;;;;6118299;23;20436;-82
2021/05/31 05:05:52;;;;;;;6.30;5.37;;;16.30;90.30;;;;;;6118340;23;20782;-83
2021/05/31 05:08:18;;;;;;;6.47;5.00;;;16.40;90.10;;;;;;6118538;23;20427;-80
2021/05/31 05:10:45;;;;;;;5.20;4.80;;;16.30;89.80;;;;;;6115981;23;20436;-82
2021/05/31 05:13:13;;;;;;;5.60;5.07;;;16.20;90.20;;;;;;6115803;23;21293;-81
2021/05/31 05:15:40;;;;;;;7.00;6.30;;;16.30;89.90;;;;;;6088061;23;20467;-80
2021/05/31 05:18:08;;;;;;;8.27;6.50;;;16.30;90.10;;;;;;6085833;23;20432;-80
2021/05/31 05:20:34;;;;;;;8.00;5.90;;;16.50;91.20;;;;;;6086297;23;20432;-80
2021/05/31 05:23:02;;;;;;;8.30;6.33;;;16.60;91.20;;;;;;6089652;23;20791;-80
2021/05/31 05:25:47;;;;;;;6.10;5.60;;;16.70;91.00;;;;;;6084715;23;20930;-79
2021/05/31 05:28:14;;;;;;;7.20;6.60;;;16.80;91.00;;;;;;6089001;23;20425;-82
2021/05/31 05:30:41;;;;;;;5.57;4.93;;;16.70;90.60;;;;;;6089065;23;21264;-83
2021/05/31 05:33:08;;;;;;;6.93;5.80;;;16.60;90.80;;;;;;6090564;23;20416;-81
2021/05/31 05:35:37;;;;;;;7.83;6.00;;;16.60;90.70;;;;;;6091492;23;20684;-82
2021/05/31 05:48:34;;;;;;;7.87;5.37;;;16.40;90.00;;;;;;6098731;23;20464;-82
2021/05/31 05:51:08;;;;;;;10.70;6.17;;;16.40;89.60;;;;;;6092504;23;20428;-82
2021/05/31 05:53:40;;;;;;;8.90;7.20;;;16.50;90.00;;;;;;6091668;23;20760;-80
2021/05/31 05:56:11;;;;;;;11.40;6.40;;;16.50;90.10;;;;;;6094612;23;20397;-81
2021/05/31 05:58:38;;;;;;;9.33;6.40;;;16.30;90.40;;;;;;6088150;23;20765;-80
2021/05/31 06:01:07;;;;;;;7.50;5.80;;;16.20;90.70;;;;;;6089419;23;20438;-81
2021/05/31 06:03:34;;;;;;;6.57;5.60;;;16.50;90.80;;;;;;6090166;23;20413;-80
2021/05/31 06:06:01;;;;;;;7.47;6.00;;;16.70;90.20;;;;;;6088958;23;20419;-82
2021/05/31 06:08:28;;;;;;;6.43;5.00;;;16.80;89.80;;;;;;6088847;23;20417;-80
2021/05/31 06:10:56;;;;;;;10.30;5.67;;;16.90;89.50;;;;;;6088340;23;20440;-82
2021/05/31 06:13:24;;;;;;;11.30;5.17;;;17.10;89.20;;;;;;6091425;23;20448;-79
2021/05/31 06:15:51;;;;;;;6.60;5.07;;;16.90;88.50;;;;;;6093011;23;20412;-80
2021/05/31 06:18:19;;;;;;;6.83;5.97;;;17.00;89.10;;;;;;6094239;23;20422;-81
2021/05/31 06:20:45;;;;;;;6.23;5.10;;;16.90;89.20;;;;;;6092463;23;20735;-81
2021/05/31 06:23:12;;;;;;;5.53;5.00;;;17.20;88.00;;;;;;6092116;23;20416;-82
2021/05/31 06:25:39;;;;;;;5.10;4.70;;;17.30;87.20;;;;;;6090849;23;20419;-82
2021/05/31 06:28:07;;;;;;;7.23;4.83;;;17.50;86.40;;;;;;6087606;23;20415;-82
2021/05/31 06:30:35;;;;;;;4.93;4.43;;;17.30;86.30;;;;;;6086343;23;20436;-80
2021/05/31 06:33:04;;;;;;;4.87;4.43;;;17.50;86.40;;;;;;6086065;23;20953;-81
2021/05/31 06:35:31;;;;;;;4.73;4.30;;;17.30;86.20;;;;;;6088756;23;20483;-82
2021/05/31 06:37:57;;;;;;;7.50;5.07;;;17.50;85.80;;;;;;6089222;23;20431;-82
2021/05/31 06:40:27;;;;;;;5.50;4.37;;;17.60;85.40;;;;;;6089847;23;20535;-81
2021/05/31 06:42:56;;;;;;;5.03;4.50;;;17.80;85.00;;;;;;6089519;23;20435;-80
2021/05/31 06:45:26;;;;;;;5.23;4.63;;;18.00;83.30;;;;;;6091200;23;20393;-81
2021/05/31 06:47:55;;;;;;;5.00;4.50;;;17.70;83.40;;;;;;6087512;23;20507;-80
2021/05/31 06:50:24;;;;;;;4.90;4.30;;;17.80;84.30;;;;;;6088192;23;20479;-80
2021/05/31 06:52:50;;;;;;;4.97;4.57;;;18.00;84.10;;;;;;6092292;23;20416;-80
2021/05/31 06:55:19;;;;;;;5.10;4.70;;;18.10;83.60;;;;;;6090346;23;20523;-82
2021/05/31 06:57:50;;;;;;;5.47;5.00;;;18.30;82.60;;;;;;6089685;23;20417;-82
2021/05/31 07:00:22;;;;;;;5.13;4.70;;;18.20;82.20;;;;;;6089996;23;20483;-82
2021/05/31 07:02:49;;;;;;;5.47;4.63;;;18.20;82.60;;;;;;6092103;23;20412;-82
2021/05/31 07:05:17;;;;;;;5.37;4.97;;;18.10;83.00;;;;;;6091369;23;20441;-82
2021/05/31 07:07:44;;;;;;;7.17;4.83;;;18.30;82.90;;;;;;6091773;23;20420;-81
2021/05/31 07:10:13;;;;;;;4.80;4.30;;;18.30;82.50;;;;;;6089088;23;20440;-82
2021/05/31 07:12:41;;;;;;;5.70;4.60;;;18.40;83.40;;;;;;6092028;23;20423;-81
2021/05/31 07:15:12;;;;;;;7.00;4.40;;;18.50;81.80;;;;;;6091727;23;20412;-79
2021/05/31 07:17:40;;;;;;;4.87;4.40;;;18.60;80.80;;;;;;6091215;23;20421;-80
2021/05/31 07:20:12;;;;;;;5.53;5.10;;;18.70;81.00;;;;;;6090110;23;20445;-79
2021/05/31 07:22:39;;;;;;;5.93;5.43;;;18.80;80.20;;;;;;6092014;23;21076;-79
2021/05/31 07:25:08;;;;;;;5.93;4.73;;;18.80;79.80;;;;;;6092261;23;20934;-81
2021/05/31 07:27:38;;;;;;;8.00;5.40;;;18.60;81.00;;;;;;6090074;23;20440;-81
2021/05/31 07:32:52;;;;;;;5.80;4.60;;;18.80;80.70;;;;;;6064718;23;20457;-81
2021/05/31 07:36:01;;;;;;;5.40;4.90;;;19.20;79.10;;;;;;6040526;23;20501;-81
2021/05/31 07:38:47;;;;;;;4.60;4.20;;;19.30;78.30;;;;;;5897815;24;20432;-80
2021/05/31 07:41:27;;;;;;;6.70;5.03;;;19.00;78.60;;;;;;5919133;24;20441;-82
2021/05/31 07:43:56;;;;;;;5.90;5.37;;;19.40;77.80;;;;;;6007239;23;20421;-79
2021/05/31 07:46:26;;;;;;;5.13;4.43;;;19.60;76.40;;;;;;6036976;23;20967;-79
2021/05/31 07:48:55;;;;;;;4.90;4.50;;;19.70;75.70;;;;;;6019922;23;20430;-80
2021/05/31 07:51:22;;;;;;;6.90;5.40;;;19.80;74.30;;;;;;6045343;23;20844;-80
2021/05/31 07:53:52;;;;;;;5.03;4.53;;;19.70;73.90;;;;;;6042906;23;20790;-80
2021/05/31 07:56:21;;;;;;;4.63;4.13;;;19.80;72.50;;;;;;6024449;23;20418;-80
2021/05/31 07:58:48;;;;;;;4.90;4.40;;;19.70;72.00;;;;;;6025434;23;20461;-80
2021/05/31 08:01:15;;;;;;;4.50;4.10;;;19.90;71.30;;;;;;6025079;23;20434;-80
2021/05/31 08:03:43;;;;;;;4.80;4.37;;;20.20;71.60;;;;;;6026596;23;20417;-82
2021/05/31 08:06:11;;;;;;;6.20;4.10;;;20.30;69.20;;;;;;6022432;23;20418;-79
2021/05/31 08:08:39;;;;;;;4.40;3.93;;;20.40;69.00;;;;;;6052026;23;20410;-80
2021/05/31 08:11:08;;;;;;;6.97;3.90;;;20.50;67.30;;;;;;6025159;23;20440;-80
2021/05/31 08:13:36;;;;;;;4.80;3.73;;;20.70;67.90;;;;;;6026161;23;20418;-80
2021/05/31 08:16:05;;;;;;;4.20;3.90;;;20.90;66.90;;;;;;6022759;23;20482;-81
2021/05/31 08:18:33;;;;;;;4.23;3.50;;;21.10;62.10;;;;;;6015313;23;20446;-82
2021/05/31 08:21:02;;;;;;;4.10;3.80;;;21.20;61.40;;;;;;6013281;23;20478;-83
2021/05/31 08:23:31;;;;;;;4.33;3.87;;;21.80;59.30;;;;;;6016191;23;20939;-83
2021/05/31 08:25:58;;;;;;;4.27;3.80;;;21.70;58.40;;;;;;6029246;23;20422;-81
2021/05/31 08:28:26;;;;;;;3.60;3.30;;;22.10;58.20;;;;;;6033906;23;21034;-81
2021/05/31 08:30:53;;;;;;;4.10;3.27;;;22.20;55.60;;;;;;6033751;23;20438;-81
2021/05/31 08:33:20;;;;;;;3.90;3.60;;;22.40;54.40;;;;;;6033993;23;20410;-81
2021/05/31 08:35:47;;;;;;;3.83;3.53;;;23.10;54.40;;;;;;6058357;23;20423;-80
2021/05/31 08:38:15;;;;;;;3.70;3.40;;;22.80;53.90;;;;;;6059057;23;20433;-82
2021/05/31 08:40:43;;;;;;;3.50;3.27;;;22.80;53.10;;;;;;6035166;23;20465;-81
2021/05/31 08:43:11;;;;;;;3.63;3.20;;;23.10;52.50;;;;;;6058561;23;20426;-79
2021/05/31 08:45:38;;;;;;;3.40;3.10;;;22.90;52.40;;;;;;6056696;23;20478;-80
2021/05/31 08:48:09;;;;;;;3.10;2.40;;;23.80;48.90;;;;;;6032955;23;20425;-80
2021/05/31 08:50:38;;;;;;;4.80;3.20;;;23.80;47.30;;;;;;6031264;23;20458;-82
2021/05/31 08:53:05;;;;;;;4.30;3.30;;;23.50;47.60;;;;;;6053782;23;20410;-80
2021/05/31 08:55:32;;;;;;;3.77;3.33;;;24.70;48.30;;;;;;6053048;23;20416;-80
2021/05/31 08:58:01;;;;;;;3.33;3.03;;;24.90;48.30;;;;;;6047358;23;20410;-80
2021/05/31 09:03:12;;;;;;;4.03;3.60;;;25.00;48.30;;;;;;6076949;23;20438;-81
2021/05/31 09:05:49;;;;;;;4.90;3.93;;;25.20;48.10;;;;;;6077248;23;20406;-81
2021/05/31 09:08:20;;;;;;;6.10;3.90;;;25.80;47.20;;;;;;6072409;23;20410;-82
2021/05/31 09:10:55;;;;;;;4.43;3.60;;;26.80;45.60;;;;;;6065548;23;20434;-82
2021/05/31 09:13:43;;;;;;;9.30;3.87;;;27.80;43.10;;;;;;6063581;23;20413;-82
2021/05/31 09:16:14;;;;;;;4.63;4.10;;;28.70;41.40;;;;;;6088266;23;20413;-80
2021/05/31 09:18:56;;;;;;;3.53;3.10;;;28.80;40.40;;;;;;6063485;23;20390;-81
2021/05/31 09:21:28;;;;;;;4.60;3.70;;;29.30;39.60;;;;;;6063557;23;21086;-83
2021/05/31 09:23:59;;;;;;;4.20;3.60;;;30.00;38.20;;;;;;6065883;23;20468;-81
2021/05/31 09:26:27;;;;;;;4.80;4.10;;;29.70;38.00;;;;;;6060006;23;20434;-82
2021/05/31 09:29:03;;;;;;;4.90;3.67;;;29.30;38.10;;;;;;6062508;23;20413;-81
2021/05/31 09:31:31;;;;;;;14.60;5.77;;;28.80;38.90;;;;;;6085908;23;20504;-82
2021/05/31 09:34:03;;;;;;;4.20;3.73;;;29.10;38.60;;;;;;6085500;23;20417;-82
2021/05/31 09:36:47;;;;;;;4.87;4.30;;;29.60;37.40;;;;;;6062381;23;20460;-80
2021/05/31 09:39:13;;;;;;;6.03;4.60;;;29.70;37.50;;;;;;6062153;23;20393;-82
2021/05/31 09:41:40;;;;;;;4.70;4.20;;;30.10;37.70;;;;;;6061382;23;20738;-82
2021/05/31 09:44:08;;;;;;;4.30;3.90;;;31.20;35.80;;;;;;6062714;23;20753;-82
2021/05/31 09:46:41;;;;;;;4.27;3.87;;;31.10;35.10;;;;;;6060806;23;20429;-80
2021/05/31 09:49:38;;;;;;;7.37;4.47;;;32.10;34.40;;;;;;6063260;23;20481;-81
2021/05/31 09:52:08;;;;;;;4.00;3.70;;;31.50;34.40;;;;;;6058989;23;20492;-81
2021/05/31 09:54:44;;;;;;;4.40;4.00;;;30.00;35.90;;;;;;6061669;23;20425;-82
2021/05/31 09:57:25;;;;;;;3.83;3.40;;;28.80;37.90;;;;;;6061587;23;20397;-82
2021/05/31 09:59:55;;;;;;;4.00;3.70;;;28.20;39.80;;;;;;6061961;23;20449;-82
2021/05/31 10:02:48;;;;;;;4.30;3.90;;;28.90;38.90;;;;;;6062844;23;20425;-80
2021/05/31 10:05:44;;;;;;;12.00;4.60;;;29.60;38.00;;;;;;6064254;23;20450;-81
2021/05/31 10:10:43;;;;;;;3.80;3.43;;;30.30;36.50;;;;;;6063609;23;20450;-80
2021/05/31 10:13:10;;;;;;;4.67;4.00;;;29.80;36.70;;;;;;6063493;23;20510;-82
2021/05/31 10:15:40;;;;;;;5.97;4.03;;;29.40;37.30;;;;;;6067389;23;20421;-80
2021/05/31 10:18:15;;;;;;;4.60;4.30;;;29.50;37.60;;;;;;6072767;23;20523;-82
2021/05/31 10:20:43;;;;;;;4.70;4.30;;;29.50;37.40;;;;;;6068862;23;20488;-82
2021/05/31 10:23:11;;;;;;;4.50;4.20;;;28.90;38.40;;;;;;6062799;23;20414;-80
2021/05/31 10:25:42;;;;;;;4.87;4.43;;;29.40;37.50;;;;;;6066624;23;20421;-80
2021/05/31 10:28:14;;;;;;;4.90;4.50;;;28.80;38.50;;;;;;6064165;23;20413;-82
2021/05/31 10:30:46;;;;;;;4.90;4.50;;;27.70;39.90;;;;;;6064577;23;20971;-82
2021/05/31 10:33:25;;;;;;;5.70;3.90;;;26.60;41.50;;;;;;6086048;23;20390;-80
2021/05/31 10:36:10;;;;;;;6.07;4.37;;;26.50;42.20;;;;;;6066032;23;20420;-83
2021/05/31 10:38:38;;;;;;;6.03;4.07;;;26.90;42.10;;;;;;6063928;23;20726;-82
2021/05/31 10:41:13;;;;;;;4.63;4.23;;;27.40;41.00;;;;;;6063219;23;20456;-81
2021/05/31 10:43:52;;;;;;;5.23;4.43;;;26.90;42.30;;;;;;6063721;23;20416;-83
2021/05/31 10:46:32;;;;;;;6.33;4.43;;;27.00;42.20;;;;;;6063357;23;20398;-81
2021/05/31 10:49:03;;;;;;;4.43;4.03;;;27.20;42.10;;;;;;6061438;23;20394;-81
2021/05/31 10:51:35;;;;;;;4.87;4.47;;;28.30;40.00;;;;;;6061571;23;20512;-82
2021/05/31 10:54:12;;;;;;;5.37;4.20;;;28.20;40.50;;;;;;6063382;23;20442;-82
2021/05/31 10:56:41;;;;;;;4.50;4.20;;;29.50;38.70;;;;;;6061530;23;20427;-81
2021/05/31 10:59:09;;;;;;;6.00;4.10;;;29.60;38.50;;;;;;6062856;23;20417;-80
2021/05/31 11:01:40;;;;;;;4.20;3.90;;;30.30;37.30;;;;;;6064626;23;20461;-82
2021/05/31 11:04:19;;;;;;;4.20;3.90;;;30.90;36.00;;;;;;6063144;23;20438;-81
2021/05/31 11:06:48;;;;;;;6.30;4.40;;;31.00;35.40;;;;;;6061218;23;20738;-82
2021/05/31 11:09:19;;;;;;;5.50;4.07;;;30.40;35.90;;;;;;6061185;23;20437;-83
2021/05/31 11:11:50;;;;;;;4.90;4.47;;;30.40;36.50;;;;;;6060487;23;20442;-83
2021/05/31 11:14:31;;;;;;;5.00;4.50;;;29.70;37.30;;;;;;6085000;23;20405;-83
2021/05/31 11:17:01;;;;;;;4.53;4.13;;;29.80;37.10;;;;;;6062812;23;20428;-82
2021/05/31 11:19:48;;;;;;;4.27;3.97;;;29.80;37.00;;;;;;6062529;23;20386;-81
2021/05/31 11:22:21;;;;;;;10.33;5.23;;;29.50;37.70;;;;;;6062351;23;20398;-83
2021/05/31 11:24:57;;;;;;;4.67;3.80;;;29.30;37.80;;;;;;6062037;23;20489;-82
2021/05/31 11:27:26;;;;;;;6.27;4.93;;;28.60;38.80;;;;;;6062459;23;20413;-82
2021/05/31 11:29:53;;;;;;;4.77;4.40;;;28.20;39.20;;;;;;6063982;23;20425;-81
2021/05/31 11:32:21;;;;;;;5.70;4.47;;;29.10;38.60;;;;;;6064330;23;20501;-82
2021/05/31 11:34:56;;;;;;;5.47;5.00;;;29.10;38.00;;;;;;6062192;23;20426;-83
2021/05/31 11:37:29;;;;;;;4.97;4.40;;;28.80;39.00;;;;;;6062225;23;20416;-83
2021/05/31 11:39:57;;;;;;;5.53;4.20;;;29.30;38.00;;;;;;6060549;23;20457;-81
2021/05/31 11:42:25;;;;;;;3.77;3.47;;;28.90;39.00;;;;;;6060430;23;20417;-83
2021/05/31 11:44:58;;;;;;;4.67;4.37;;;29.70;37.70;;;;;;6058928;23;20417;-82
2021/05/31 11:47:29;;;;;;;4.50;4.10;;;29.00;37.80;;;;;;6060877;23;20418;-85
2021/05/31 11:49:59;;;;;;;4.80;4.37;;;28.90;39.20;;;;;;6060831;23;21022;-83
2021/05/31 11:52:28;;;;;;;4.53;4.10;;;29.10;38.00;;;;;;6060081;23;20476;-82
2021/05/31 11:54:56;;;;;;;4.30;3.90;;;29.40;37.20;;;;;;6059360;23;20430;-82
2021/05/31 11:57:26;;;;;;;4.13;3.73;;;29.90;37.00;;;;;;6060102;23;20422;-83
2021/05/31 11:59:56;;;;;;;4.57;4.27;;;30.00;36.70;;;;;;6060361;23;20936;-83
2021/05/31 12:02:28;;;;;;;4.47;3.80;;;29.60;36.70;;;;;;6062928;23;20453;-83
2021/05/31 12:04:55;;;;;;;5.20;4.80;;;29.50;37.00;;;;;;6062381;23;20381;-82
2021/05/31 12:07:24;;;;;;;4.20;3.80;;;29.50;37.30;;;;;;6061584;23;20406;-83
2021/05/31 12:09:54;;;;;;;4.27;3.97;;;29.10;37.40;;;;;;6059478;23;20437;-82
2021/05/31 12:12:25;;;;;;;4.63;4.23;;;29.80;36.20;;;;;;6061372;23;20406;-80
2021/05/31 12:14:56;;;;;;;4.37;4.07;;;29.90;36.50;;;;;;6065259;23;20448;-81
2021/05/31 12:17:28;;;;;;;4.17;3.87;;;29.60;37.00;;;;;;6062463;23;20402;-83
2021/05/31 12:19:56;;;;;;;4.03;3.73;;;30.10;35.70;;;;;;6062220;23;20495;-81
2021/05/31 12:22:28;;;;;;;4.80;3.87;;;30.00;35.10;;;;;;6062599;23;20444;-81
2021/05/31 12:24:57;;;;;;;4.33;3.77;;;29.60;35.30;;;;;;6064251;23;20394;-82
2021/05/31 12:27:28;;;;;;;5.70;4.23;;;28.90;36.10;;;;;;6063092;23;21380;-83
2021/05/31 12:29:56;;;;;;;4.50;4.20;;;28.70;36.30;;;;;;6063429;23;20447;-82
2021/05/31 12:32:25;;;;;;;5.77;3.70;;;28.50;36.50;;;;;;6064815;23;20421;-83
2021/05/31 12:34:53;;;;;;;4.93;3.87;;;28.20;37.80;;;;;;6062165;23;20417;-83
2021/05/31 12:37:26;;;;;;;6.30;3.90;;;27.70;37.90;;;;;;6064569;23;20492;-81
2021/05/31 12:39:53;;;;;;;5.17;4.23;;;27.40;38.20;;;;;;6063762;23;20748;-85
2021/05/31 12:42:23;;;;;;;5.07;3.80;;;27.60;38.20;;;;;;6063182;23;20493;-82
2021/05/31 12:44:50;;;;;;;3.60;3.30;;;28.10;37.30;;;;;;6064692;23;20721;-82
2021/05/31 12:47:20;;;;;;;4.73;3.80;;;28.60;36.60;;;;;;6063683;23;20604;-83
2021/05/31 12:49:51;;;;;;;4.00;3.70;;;29.20;36.50;;;;;;6063473;23;20464;-84
2021/05/31 12:52:26;;;;;;;3.90;3.60;;;29.20;36.40;;;;;;6062843;23;20398;-82
2021/05/31 12:55:08;;;;;;;4.30;3.90;;;28.90;37.20;;;;;;6087038;23;21141;-83
2021/05/31 12:57:47;;;;;;;6.33;4.13;;;29.10;37.70;;;;;;6065931;23;20413;-82
2021/05/31 13:00:16;;;;;;;4.17;3.87;;;29.30;37.80;;;;;;6069614;23;20433;-82
2021/05/31 13:02:58;;;;;;;4.20;3.90;;;29.30;37.90;;;;;;6094281;23;21021;-81
2021/05/31 13:05:28;;;;;;;4.33;3.93;;;29.00;37.20;;;;;;6069749;23;20410;-83
2021/05/31 13:08:00;;;;;;;4.37;3.90;;;28.50;38.40;;;;;;6069283;23;20417;-81
2021/05/31 13:10:39;;;;;;;4.73;4.23;;;28.30;38.20;;;;;;6069005;23;20504;-83
2021/05/31 13:13:09;;;;;;;4.50;4.10;;;28.30;37.40;;;;;;6063025;23;20427;-83
2021/05/31 13:15:45;;;;;;;4.43;4.00;;;28.10;37.90;;;;;;6063988;23;20453;-83
2021/05/31 13:18:33;;;;;;;5.20;4.70;;;28.10;37.70;;;;;;6063396;23;20421;-83
2021/05/31 13:42:28;;;;;;;;;;;;;;;;;;;;;
2021/05/31 13:45:55;;;;;;;4.67;3.53;;;28.30;36.70;;;;;;5646098;25;20482;-82
2021/05/31 13:49:16;;;;;;;;;;;;;;;;;;;;;
2021/05/31 14:04:38;;;;;;;4.27;3.97;;;27.50;37.60;;;;;;6063974;23;20484;-82
2021/05/31 14:16:01;;;;;;;;;;;;;;;;;;;;;